createdAt,value
2022-11-30T00:00:10.279Z,4.48
2022-11-30T00:05:13.146Z,4.54
2022-11-30T00:10:15.402Z,4.49
2022-11-30T00:15:17.512Z,4.51
2022-11-30T00:20:18.534Z,4.33
2022-11-30T00:25:21.393Z,4.42
2022-11-30T00:30:22.207Z,4.49
2022-11-30T00:35:22.979Z,4.51
2022-11-30T00:40:25.128Z,4.52
2022-11-30T00:45:25.900Z,4.58
2022-11-30T00:50:26.736Z,4.57
2022-11-30T00:55:30.462Z,4.51
2022-11-30T01:00:31.408Z,4.52
2022-11-30T01:05:34.442Z,4.50
2022-11-30T01:10:37.890Z,4.44
2022-11-30T01:15:40.182Z,4.46
2022-11-30T01:20:42.430Z,4.51
2022-11-30T01:25:54.717Z,4.53
2022-11-30T01:30:59.724Z,4.47
2022-11-30T01:36:02.918Z,4.45
2022-11-30T01:41:07.833Z,4.50
2022-11-30T01:46:29.356Z,4.45
2022-11-30T01:51:35.409Z,4.47
2022-11-30T01:56:38.669Z,4.44
2022-11-30T02:01:39.479Z,4.42
2022-11-30T02:06:40.480Z,4.37
2022-11-30T02:11:42.679Z,4.28
2022-11-30T02:16:53.413Z,4.27
2022-11-30T02:22:00.888Z,4.25
2022-11-30T02:27:14.823Z,4.09
2022-11-30T02:32:23.022Z,4.11
2022-11-30T02:37:26.498Z,4.11
2022-11-30T02:42:27.297Z,4.09
2022-11-30T02:47:37.439Z,4.15
2022-11-30T02:52:38.452Z,4.08
2022-11-30T02:57:39.261Z,3.96
2022-11-30T03:02:42.425Z,4.07
2022-11-30T03:07:43.413Z,3.94
2022-11-30T03:12:44.228Z,3.98
2022-11-30T03:17:46.391Z,3.93
2022-11-30T03:22:47.187Z,3.88
2022-11-30T03:27:48.001Z,3.81
2022-11-30T03:32:51.744Z,3.80
2022-11-30T03:37:52.502Z,3.66
2022-11-30T03:42:53.282Z,3.61
2022-11-30T03:47:55.437Z,3.59
2022-11-30T03:52:56.248Z,3.54
2022-11-30T03:57:57.054Z,3.53
2022-11-30T04:02:59.208Z,3.48
2022-11-30T04:08:00.090Z,3.45
2022-11-30T04:13:00.958Z,3.50
2022-11-30T04:18:03.154Z,3.44
2022-11-30T04:23:03.920Z,3.38
2022-11-30T04:28:04.731Z,3.24
2022-11-30T04:33:07.229Z,3.26
2022-11-30T04:38:08.033Z,3.23
2022-11-30T04:43:09.451Z,3.20
2022-11-30T04:48:11.593Z,3.19
2022-11-30T04:53:12.873Z,3.18
2022-11-30T04:58:13.645Z,3.20
2022-11-30T05:03:15.761Z,3.20
2022-11-30T05:08:16.532Z,3.20
2022-11-30T05:13:17.320Z,3.21
2022-11-30T05:18:19.450Z,3.22
2022-11-30T05:23:21.311Z,3.21
2022-11-30T05:28:22.265Z,3.22
2022-11-30T05:33:24.382Z,3.17
2022-11-30T05:38:25.200Z,3.40
2022-11-30T05:43:26.018Z,3.47
2022-11-30T05:48:28.344Z,3.32
2022-11-30T05:53:29.132Z,3.36
2022-11-30T05:58:29.964Z,3.30
2022-11-30T06:03:33.828Z,3.26
2022-11-30T06:08:34.614Z,3.11
2022-11-30T06:13:35.608Z,3.14
2022-11-30T06:18:38.350Z,2.97
2022-11-30T06:23:39.315Z,3.02
2022-11-30T06:28:45.355Z,2.91
2022-11-30T06:33:50.122Z,2.87
2022-11-30T06:38:51.270Z,2.80
2022-11-30T06:43:52.198Z,2.87
2022-11-30T06:48:54.463Z,2.75
2022-11-30T06:53:55.280Z,2.82
2022-11-30T06:59:20.716Z,2.80
2022-11-30T07:04:22.999Z,2.83
2022-11-30T07:09:23.883Z,2.77
2022-11-30T07:14:25.607Z,2.76
2022-11-30T07:19:27.838Z,2.81
2022-11-30T07:24:48.288Z,2.82
2022-11-30T07:29:51.540Z,2.84
2022-11-30T07:34:53.893Z,2.94
2022-11-30T07:39:55.208Z,2.86
2022-11-30T07:44:59.005Z,3.01
2022-11-30T07:50:01.585Z,3.01
2022-11-30T07:55:02.388Z,3.08
2022-11-30T08:00:03.724Z,3.30
2022-11-30T08:05:14.458Z,3.47
2022-11-30T08:10:15.381Z,3.57
2022-11-30T08:15:21.051Z,3.64
2022-11-30T08:20:24.297Z,3.59
2022-11-30T08:25:25.222Z,3.69
2022-11-30T08:30:29.399Z,3.85
2022-11-30T08:35:33.306Z,3.93
2022-11-30T08:40:34.141Z,3.90
2022-11-30T08:45:35.042Z,4.80
2022-11-30T08:50:37.705Z,5.36
2022-11-30T08:55:38.695Z,5.34
2022-11-30T09:00:39.465Z,5.43
2022-11-30T09:05:41.615Z,5.34
2022-11-30T09:10:42.384Z,5.55
2022-11-30T09:15:43.295Z,5.46
2022-11-30T09:20:45.444Z,5.47
2022-11-30T09:25:46.277Z,4.87
2022-11-30T09:30:47.259Z,4.72
2022-11-30T09:35:57.745Z,4.65
2022-11-30T09:41:00.285Z,4.69
2022-11-30T09:46:04.597Z,4.67
2022-11-30T09:51:14.980Z,4.75
2022-11-30T09:56:23.912Z,4.71
2022-11-30T10:01:32.853Z,4.64
2022-11-30T10:06:49.769Z,4.74
2022-11-30T10:11:59.739Z,4.63
2022-11-30T10:17:13.100Z,4.69
2022-11-30T10:22:22.518Z,4.75
2022-11-30T10:27:40.703Z,4.72
2022-11-30T10:32:45.286Z,4.69
2022-11-30T10:37:48.651Z,4.70
2022-11-30T10:42:54.152Z,4.72
2022-11-30T10:48:01.944Z,4.87
2022-11-30T10:53:04.219Z,5.03
2022-11-30T10:58:13.170Z,5.33
2022-11-30T11:03:24.800Z,5.90
2022-11-30T11:08:27.756Z,5.83
2022-11-30T11:13:40.260Z,5.71
2022-11-30T11:18:53.702Z,5.75
2022-11-30T11:23:58.401Z,5.70
2022-11-30T11:29:00.461Z,5.80
2022-11-30T11:34:01.323Z,5.71
2022-11-30T11:39:03.722Z,5.45
2022-11-30T11:44:07.380Z,5.46
2022-11-30T11:49:21.425Z,5.35
2022-11-30T11:54:27.146Z,5.36
2022-11-30T11:59:40.246Z,5.33
2022-11-30T12:04:46.668Z,5.28
2022-11-30T12:09:58.259Z,5.23
2022-11-30T12:14:59.195Z,5.28
2022-11-30T12:20:11.677Z,5.29
2022-11-30T12:25:25.338Z,5.40
2022-11-30T12:30:33.211Z,5.44
2022-11-30T12:35:41.038Z,5.30
2022-11-30T12:40:53.035Z,5.31
2022-11-30T12:46:00.765Z,5.28
2022-11-30T12:51:12.864Z,5.20
2022-11-30T12:56:27.930Z,5.35
2022-11-30T13:01:44.274Z,5.62
2022-11-30T13:06:49.727Z,5.60
2022-11-30T13:11:57.647Z,5.50
2022-11-30T13:17:03.387Z,5.44
2022-11-30T13:22:11.140Z,5.54
2022-11-30T13:27:19.510Z,5.60
2022-11-30T13:32:56.767Z,5.63
2022-11-30T13:37:41.728Z,5.45
2022-11-30T13:42:51.307Z,5.48
2022-11-30T13:47:58.750Z,5.44
2022-11-30T13:53:25.357Z,5.52
2022-11-30T13:58:28.497Z,5.48
2022-11-30T14:03:31.445Z,5.34
2022-11-30T14:08:35.578Z,5.29
2022-11-30T14:13:37.742Z,5.29
2022-11-30T14:18:43.831Z,5.19
2022-11-30T14:23:51.320Z,5.21
2022-11-30T14:29:01.913Z,5.18
2022-11-30T14:34:07.738Z,5.14
2022-11-30T14:39:27.630Z,5.03
2022-11-30T14:44:35.503Z,5.13
2022-11-30T14:49:36.331Z,5.08
2022-11-30T14:54:46.699Z,5.04
2022-11-30T14:59:52.276Z,4.95
2022-11-30T15:04:55.979Z,5.06
2022-11-30T15:10:04.742Z,5.09
2022-11-30T15:15:15.361Z,5.09
2022-11-30T15:20:25.921Z,5.11
2022-11-30T15:25:32.823Z,5.14
2022-11-30T15:30:39.620Z,5.08
2022-11-30T15:36:13.806Z,5.03
2022-11-30T15:41:19.876Z,5.02
2022-11-30T15:46:34.445Z,5.04
2022-11-30T15:51:39.211Z,5.03
2022-11-30T15:56:40.072Z,5.13
2022-11-30T16:02:04.804Z,5.09
2022-11-30T16:07:05.802Z,5.05
2022-11-30T16:12:25.974Z,5.07
2022-11-30T16:17:30.169Z,5.01
2022-11-30T16:22:31.008Z,5.12
2022-11-30T16:27:31.809Z,5.08
2022-11-30T16:32:34.018Z,5.08
2022-11-30T16:37:34.805Z,5.08
2022-11-30T16:42:35.592Z,5.14
2022-11-30T16:47:37.794Z,5.06
2022-11-30T16:52:38.721Z,5.02
2022-11-30T16:57:39.509Z,5.05
2022-11-30T17:02:46.090Z,5.00
2022-11-30T17:07:46.969Z,4.97
2022-11-30T17:12:48.104Z,4.99
2022-11-30T17:17:50.290Z,5.05
2022-11-30T17:22:51.135Z,5.08
2022-11-30T17:27:52.293Z,5.11
2022-11-30T17:32:54.574Z,5.13
2022-11-30T17:37:55.565Z,5.12
2022-11-30T17:42:56.372Z,5.13
2022-11-30T17:47:58.527Z,5.07
2022-11-30T17:52:59.477Z,5.08
2022-11-30T17:58:00.376Z,5.00
2022-11-30T18:03:02.691Z,4.89
2022-11-30T18:08:03.649Z,4.70
2022-11-30T18:13:04.503Z,4.66
2022-11-30T18:18:06.895Z,4.61
2022-11-30T18:23:07.682Z,4.52
2022-11-30T18:28:08.509Z,4.25
2022-11-30T18:33:10.750Z,4.12
2022-11-30T18:38:11.569Z,3.96
2022-11-30T18:43:12.363Z,3.93
2022-11-30T18:48:14.606Z,3.71
2022-11-30T18:53:18.469Z,3.76
2022-11-30T18:58:19.492Z,3.77
2022-11-30T19:03:21.650Z,3.79
2022-11-30T19:08:22.481Z,3.59
2022-11-30T19:13:23.381Z,3.51
2022-11-30T19:18:25.591Z,3.49
2022-11-30T19:23:26.676Z,3.52
2022-11-30T19:28:30.101Z,3.34
2022-11-30T19:33:32.330Z,3.26
2022-11-30T19:38:33.162Z,3.18
2022-11-30T19:43:34.264Z,3.03
2022-11-30T19:48:39.029Z,2.90
2022-11-30T19:53:40.942Z,2.86
2022-11-30T19:58:42.411Z,2.80
2022-11-30T20:03:45.033Z,2.57
2022-11-30T20:08:46.050Z,2.43
2022-11-30T20:13:46.961Z,2.44
2022-11-30T20:18:55.905Z,2.31
2022-11-30T20:23:59.268Z,2.34
2022-11-30T20:29:01.782Z,2.39
2022-11-30T20:34:04.079Z,2.28
2022-11-30T20:39:05.690Z,2.19
2022-11-30T20:44:06.674Z,2.17
2022-11-30T20:49:17.451Z,2.28
2022-11-30T20:54:18.647Z,2.39
2022-11-30T20:59:23.634Z,2.30
2022-11-30T21:04:26.796Z,2.12
2022-11-30T21:09:27.715Z,2.05
2022-11-30T21:14:28.552Z,2.10
2022-11-30T21:19:30.707Z,2.03
2022-11-30T21:24:31.617Z,2.09
2022-11-30T21:29:32.411Z,2.05
2022-11-30T21:34:34.588Z,2.12
2022-11-30T21:39:36.328Z,2.03
2022-11-30T21:44:37.123Z,1.93
2022-11-30T21:49:39.224Z,1.91
2022-11-30T21:54:39.993Z,1.87
2022-11-30T21:59:40.836Z,1.83
2022-11-30T22:04:43.351Z,1.82
2022-11-30T22:09:44.161Z,1.70
2022-11-30T22:14:44.940Z,1.75
2022-11-30T22:19:47.394Z,1.67
2022-11-30T22:24:48.973Z,1.77
2022-11-30T22:29:50.912Z,1.68
2022-11-30T22:34:53.036Z,1.60
2022-11-30T22:39:53.855Z,1.54
2022-11-30T22:44:54.639Z,1.46
2022-11-30T22:49:56.815Z,1.30
2022-11-30T22:54:57.652Z,1.15
2022-11-30T22:59:58.505Z,1.20
2022-11-30T23:05:00.734Z,1.26
2022-11-30T23:10:01.543Z,1.27
2022-11-30T23:15:02.356Z,1.34
2022-11-30T23:20:04.808Z,1.32
2022-11-30T23:25:06.153Z,1.33
2022-11-30T23:30:09.204Z,1.32
2022-11-30T23:35:11.576Z,1.32
2022-11-30T23:40:13.423Z,1.17
2022-11-30T23:45:14.266Z,1.19
2022-11-30T23:50:16.533Z,1.23
2022-11-30T23:55:17.458Z,1.24
